createdAt,value
2023-06-10T00:00:52.441Z,94284.00
2023-06-10T00:01:52.443Z,94282.00
2023-06-10T00:02:52.546Z,94286.00
2023-06-10T00:03:52.486Z,94286.00
2023-06-10T00:04:52.526Z,94286.00
2023-06-10T00:05:52.427Z,94288.00
2023-06-10T00:06:52.400Z,94288.00
2023-06-10T00:07:52.416Z,94292.00
2023-06-10T00:08:52.423Z,94292.00
2023-06-10T00:09:52.385Z,94292.00
2023-06-10T00:10:52.388Z,94292.00
2023-06-10T00:11:52.442Z,94296.00
2023-06-10T00:12:52.377Z,94296.00
2023-06-10T00:13:52.382Z,94294.00
2023-06-10T00:14:52.349Z,94294.00
2023-06-10T00:15:52.410Z,94294.00
2023-06-10T00:16:52.334Z,94294.00
2023-06-10T00:17:52.425Z,94296.00
2023-06-10T00:18:52.464Z,94298.00
2023-06-10T00:19:52.500Z,94298.00
2023-06-10T00:20:52.558Z,94298.00
2023-06-10T00:21:52.612Z,94300.00
2023-06-10T00:22:52.685Z,94300.00
2023-06-10T00:23:52.742Z,94300.00
2023-06-10T00:24:52.779Z,94298.00
2023-06-10T00:25:52.867Z,94298.00
2023-06-10T00:26:52.904Z,94294.00
2023-06-10T00:27:52.988Z,94292.00
2023-06-10T00:28:53.015Z,94290.00
2023-06-10T00:29:53.083Z,94290.00
2023-06-10T00:30:53.141Z,94290.00
2023-06-10T00:31:53.222Z,94290.00
2023-06-10T00:32:53.344Z,94288.00
2023-06-10T00:33:53.320Z,94288.00
2023-06-10T00:34:53.361Z,94288.00
2023-06-10T00:35:53.434Z,94282.00
2023-06-10T00:36:53.473Z,94288.00
2023-06-10T00:37:53.615Z,94288.00
2023-06-10T00:38:53.611Z,94284.00
2023-06-10T00:39:53.680Z,94288.00
2023-06-10T00:40:53.719Z,94288.00
2023-06-10T00:41:53.800Z,94288.00
2023-06-10T00:42:53.854Z,94288.00
2023-06-10T00:43:53.902Z,94288.00
2023-06-10T00:44:53.938Z,94290.00
2023-06-10T00:45:54.032Z,94292.00
2023-06-10T00:46:54.051Z,94292.00
2023-06-10T00:47:54.172Z,94294.00
2023-06-10T00:48:54.168Z,94294.00
2023-06-10T00:49:54.225Z,94296.00
2023-06-10T00:50:54.280Z,94296.00
2023-06-10T00:51:54.353Z,94294.00
2023-06-10T00:52:55.825Z,94294.00
2023-06-10T00:53:54.470Z,94294.00
2023-06-10T00:54:54.513Z,94296.00
2023-06-10T00:55:54.581Z,94294.00
2023-06-10T00:56:54.633Z,94292.00
2023-06-10T00:57:54.700Z,94294.00
2023-06-10T00:58:54.762Z,94294.00
2023-06-10T00:59:54.815Z,94294.00
2023-06-10T01:00:54.925Z,94294.00
2023-06-10T01:01:54.935Z,94294.00
2023-06-10T01:02:55.159Z,94296.00
2023-06-10T01:03:55.057Z,94294.00
2023-06-10T01:04:55.119Z,94296.00
2023-06-10T01:05:55.174Z,94296.00
2023-06-10T01:06:55.238Z,94298.00
2023-06-10T01:07:55.328Z,94294.00
2023-06-10T01:08:55.363Z,94294.00
2023-06-10T01:09:55.424Z,94294.00
2023-06-10T01:10:55.488Z,94294.00
2023-06-10T01:11:55.540Z,94294.00
2023-06-10T01:12:55.641Z,94296.00
2023-06-10T01:13:55.718Z,94298.00
2023-06-10T01:14:55.737Z,94298.00
2023-06-10T01:15:55.805Z,94298.00
2023-06-10T01:16:55.967Z,94300.00
2023-06-10T01:17:55.983Z,94300.00
2023-06-10T01:18:55.979Z,94302.00
2023-06-10T01:19:56.043Z,94302.00
2023-06-10T01:20:56.104Z,94302.00
2023-06-10T01:21:56.203Z,94300.00
2023-06-10T01:22:56.235Z,94300.00
2023-06-10T01:23:56.321Z,94300.00
2023-06-10T01:24:56.354Z,94300.00
2023-06-10T01:25:56.411Z,94302.00
2023-06-10T01:26:56.478Z,94302.00
2023-06-10T01:27:56.565Z,94304.00
2023-06-10T01:28:56.634Z,94304.00
2023-06-10T01:29:56.680Z,94304.00
2023-06-10T01:30:56.754Z,94304.00
2023-06-10T01:31:56.778Z,94298.00
2023-06-10T01:32:56.915Z,94300.00
2023-06-10T01:33:56.908Z,94298.00
2023-06-10T01:34:57.007Z,94296.00
2023-06-10T01:35:57.028Z,94296.00
2023-06-10T01:36:57.107Z,94296.00
2023-06-10T01:37:57.152Z,94296.00
2023-06-10T01:38:57.202Z,94294.00
2023-06-10T01:39:57.275Z,94296.00
2023-06-10T01:40:57.330Z,94296.00
2023-06-10T01:41:57.388Z,94294.00
2023-06-10T01:42:57.451Z,94294.00
2023-06-10T01:43:57.519Z,94294.00
2023-06-10T01:44:57.575Z,94294.00
2023-06-10T01:45:57.631Z,94290.00
2023-06-10T01:46:57.824Z,94288.00
2023-06-10T01:47:57.825Z,94288.00
2023-06-10T01:48:57.817Z,94288.00
2023-06-10T01:49:57.891Z,94288.00
2023-06-10T01:50:57.947Z,94284.00
2023-06-10T01:51:58.018Z,94288.00
2023-06-10T01:52:58.079Z,94288.00
2023-06-10T01:53:58.141Z,94290.00
2023-06-10T01:54:58.195Z,94292.00
2023-06-10T01:55:58.252Z,94294.00
2023-06-10T01:56:58.315Z,94292.00
2023-06-10T01:57:58.445Z,94294.00
2023-06-10T01:58:58.438Z,94292.00
2023-06-10T01:59:58.497Z,94294.00
2023-06-10T02:00:58.594Z,94294.00
2023-06-10T02:01:58.610Z,94294.00
2023-06-10T02:02:58.749Z,94296.00
2023-06-10T02:03:58.770Z,94296.00
2023-06-10T02:04:58.794Z,94296.00
2023-06-10T02:05:58.859Z,94296.00
2023-06-10T02:06:58.916Z,94296.00
2023-06-10T02:07:58.975Z,94296.00
2023-06-10T02:08:59.018Z,94296.00
2023-06-10T02:09:59.089Z,94296.00
2023-06-10T02:10:59.143Z,94296.00
2023-06-10T02:11:59.224Z,94302.00
2023-06-10T02:12:59.286Z,94300.00
2023-06-10T02:13:59.351Z,94302.00
2023-06-10T02:14:59.370Z,94304.00
2023-06-10T02:15:59.442Z,94304.00
2023-06-10T02:16:59.524Z,94306.00
2023-06-10T02:17:59.610Z,94308.00
2023-06-10T02:18:59.601Z,94306.00
2023-06-10T02:19:59.671Z,94308.00
2023-06-10T02:20:59.726Z,94310.00
2023-06-10T02:21:59.782Z,94312.00
2023-06-10T02:22:59.852Z,94312.00
2023-06-10T02:23:59.913Z,94310.00
2023-06-10T02:24:59.948Z,94314.00
2023-06-10T02:26:00.000Z,94318.00
2023-06-10T02:27:00.028Z,94320.00
2023-06-10T02:28:00.091Z,94322.00
2023-06-10T02:29:00.128Z,94320.00
2023-06-10T02:30:00.184Z,94322.00
2023-06-10T02:31:00.188Z,94324.00
2023-06-10T02:32:00.265Z,94326.00
2023-06-10T02:33:00.421Z,94326.00
2023-06-10T02:34:00.286Z,94326.00
2023-06-10T02:35:00.297Z,94326.00
2023-06-10T02:36:00.334Z,94324.00
2023-06-10T02:37:00.355Z,94328.00
2023-06-10T02:38:00.388Z,94328.00
2023-06-10T02:39:00.427Z,94330.00
2023-06-10T02:40:00.458Z,94330.00
2023-06-10T02:41:00.509Z,94330.00
2023-06-10T02:42:00.538Z,94328.00
2023-06-10T02:43:00.589Z,94330.00
2023-06-10T02:44:00.645Z,94328.00
2023-06-10T02:45:00.627Z,94330.00
2023-06-10T02:46:00.688Z,94330.00
2023-06-10T02:47:00.690Z,94330.00
2023-06-10T02:48:00.820Z,94330.00
2023-06-10T02:49:00.800Z,94332.00
2023-06-10T02:50:00.828Z,94332.00
2023-06-10T02:51:00.861Z,94328.00
2023-06-10T02:52:00.904Z,94330.00
2023-06-10T02:53:00.945Z,94332.00
2023-06-10T02:54:00.963Z,94332.00
2023-06-10T02:55:01.004Z,94328.00
2023-06-10T02:56:01.029Z,94330.00
2023-06-10T02:57:01.077Z,94328.00
2023-06-10T02:58:01.123Z,94328.00
2023-06-10T02:59:01.181Z,94328.00
2023-06-10T03:00:01.244Z,94328.00
2023-06-10T03:01:01.232Z,94326.00
2023-06-10T03:02:01.292Z,94326.00
2023-06-10T03:03:01.341Z,94324.00
2023-06-10T03:04:01.348Z,94324.00
2023-06-10T03:05:01.320Z,94324.00
2023-06-10T03:06:01.360Z,94322.00
2023-06-10T03:07:01.347Z,94324.00
2023-06-10T03:08:01.369Z,94322.00
2023-06-10T03:09:01.410Z,94322.00
2023-06-10T03:10:01.463Z,94324.00
2023-06-10T03:11:01.503Z,94324.00
2023-06-10T03:12:01.526Z,94322.00
2023-06-10T03:13:01.572Z,94324.00
2023-06-10T03:14:01.625Z,94324.00
2023-06-10T03:15:01.669Z,94324.00
2023-06-10T03:16:01.771Z,94324.00
2023-06-10T03:17:01.739Z,94324.00
2023-06-10T03:18:01.824Z,94324.00
2023-06-10T03:19:01.847Z,94326.00
2023-06-10T03:20:01.826Z,94330.00
2023-06-10T03:21:01.867Z,94328.00
2023-06-10T03:22:01.893Z,94330.00
2023-06-10T03:23:01.960Z,94330.00
2023-06-10T03:24:02.015Z,94328.00
2023-06-10T03:25:02.008Z,94328.00
2023-06-10T03:26:02.017Z,94328.00
2023-06-10T03:27:02.024Z,94326.00
2023-06-10T03:28:02.047Z,94324.00
2023-06-10T03:29:02.052Z,94326.00
2023-06-10T03:30:02.078Z,94326.00
2023-06-10T03:31:02.105Z,94328.00
2023-06-10T03:32:02.092Z,94326.00
2023-06-10T03:33:02.172Z,94328.00
2023-06-10T03:34:02.148Z,94328.00
2023-06-10T03:35:02.169Z,94328.00
2023-06-10T03:36:02.187Z,94328.00
2023-06-10T03:37:02.228Z,94330.00
2023-06-10T03:38:02.322Z,94330.00
2023-06-10T03:39:02.282Z,94332.00
2023-06-10T03:40:02.291Z,94330.00
2023-06-10T03:41:02.321Z,94330.00
2023-06-10T03:42:02.341Z,94335.00
2023-06-10T03:43:02.379Z,94332.00
2023-06-10T03:44:02.449Z,94335.00
2023-06-10T03:45:02.453Z,94337.00
2023-06-10T03:46:02.562Z,94335.00
2023-06-10T03:47:02.536Z,94337.00
2023-06-10T03:48:02.724Z,94337.00
2023-06-10T03:49:02.638Z,94339.00
2023-06-10T03:50:02.654Z,94339.00
2023-06-10T03:51:02.705Z,94339.00
2023-06-10T03:52:02.736Z,94341.00
2023-06-10T03:53:02.767Z,94341.00
2023-06-10T03:54:02.801Z,94343.00
2023-06-10T03:55:02.867Z,94343.00
2023-06-10T03:56:02.875Z,94347.00
2023-06-10T03:57:02.899Z,94349.00
2023-06-10T03:58:02.927Z,94351.00
2023-06-10T03:59:02.988Z,94351.00
2023-06-10T04:00:03.007Z,94351.00
2023-06-10T04:01:03.060Z,94353.00
2023-06-10T04:02:03.137Z,94353.00
2023-06-10T04:03:03.109Z,94355.00
2023-06-10T04:04:03.136Z,94353.00
2023-06-10T04:05:03.127Z,94353.00
2023-06-10T04:06:03.236Z,94357.00
2023-06-10T04:07:03.247Z,94355.00
2023-06-10T04:08:03.295Z,94355.00
2023-06-10T04:09:03.338Z,94357.00
2023-06-10T04:10:03.390Z,94355.00
2023-06-10T04:11:03.439Z,94357.00
2023-06-10T04:12:03.551Z,94355.00
2023-06-10T04:13:03.557Z,94361.00
2023-06-10T04:14:03.622Z,94361.00
2023-06-10T04:15:03.681Z,94363.00
2023-06-10T04:16:03.771Z,94361.00
2023-06-10T04:17:03.844Z,94363.00
2023-06-10T04:18:03.954Z,94359.00
2023-06-10T04:19:03.963Z,94361.00
2023-06-10T04:20:04.002Z,94363.00
2023-06-10T04:21:04.068Z,94361.00
2023-06-10T04:22:04.132Z,94363.00
2023-06-10T04:23:04.209Z,94365.00
2023-06-10T04:24:04.357Z,94365.00
2023-06-10T04:25:04.318Z,94365.00
2023-06-10T04:26:04.374Z,94363.00
2023-06-10T04:27:04.414Z,94363.00
2023-06-10T04:28:04.485Z,94367.00
2023-06-10T04:29:04.477Z,94361.00
2023-06-10T04:30:04.504Z,94365.00
2023-06-10T04:31:04.520Z,94363.00
2023-06-10T04:32:04.580Z,94367.00
2023-06-10T04:33:04.632Z,94361.00
2023-06-10T04:34:04.639Z,94363.00
2023-06-10T04:35:04.717Z,94363.00
2023-06-10T04:36:04.735Z,94365.00
2023-06-10T04:37:04.799Z,94361.00
2023-06-10T04:38:04.856Z,94365.00
2023-06-10T04:39:04.902Z,94365.00
2023-06-10T04:40:04.920Z,94359.00
2023-06-10T04:41:04.917Z,94363.00
2023-06-10T04:42:04.928Z,94363.00
2023-06-10T04:43:04.934Z,94367.00
2023-06-10T04:44:04.923Z,94369.00
2023-06-10T04:45:04.948Z,94371.00
2023-06-10T04:46:07.062Z,94371.00
2023-06-10T04:47:04.957Z,94369.00
2023-06-10T04:48:04.969Z,94367.00
2023-06-10T04:49:04.926Z,94367.00
2023-06-10T04:50:04.934Z,94369.00
2023-06-10T04:51:04.924Z,94367.00
2023-06-10T04:52:04.907Z,94369.00
2023-06-10T04:53:04.909Z,94371.00
2023-06-10T04:54:04.988Z,94373.00
2023-06-10T04:55:04.890Z,94371.00
2023-06-10T04:56:04.883Z,94371.00
2023-06-10T04:57:04.870Z,94371.00
2023-06-10T04:58:04.869Z,94382.00
2023-06-10T04:59:04.859Z,94380.00
2023-06-10T05:00:04.854Z,94380.00
2023-06-10T05:01:04.839Z,94382.00
2023-06-10T05:02:04.875Z,94380.00
2023-06-10T05:03:05.018Z,94380.00
2023-06-10T05:04:04.987Z,94384.00
2023-06-10T05:05:04.825Z,94384.00
2023-06-10T05:06:04.825Z,94382.00
2023-06-10T05:07:04.811Z,94382.00
2023-06-10T05:08:06.964Z,94380.00
2023-06-10T05:09:04.792Z,94382.00
2023-06-10T05:10:04.787Z,94380.00
2023-06-10T05:11:04.787Z,94373.00
2023-06-10T05:12:04.767Z,94382.00
2023-06-10T05:13:04.768Z,94382.00
2023-06-10T05:14:04.760Z,94380.00
2023-06-10T05:15:04.844Z,94382.00
2023-06-10T05:16:04.770Z,94382.00
2023-06-10T05:17:04.740Z,94373.00
2023-06-10T05:18:04.783Z,94380.00
2023-06-10T05:19:07.928Z,94380.00
2023-06-10T05:20:04.736Z,94373.00
2023-06-10T05:21:04.744Z,94380.00
2023-06-10T05:22:04.710Z,94371.00
2023-06-10T05:23:04.710Z,94371.00
2023-06-10T05:24:04.786Z,94373.00
2023-06-10T05:25:04.683Z,94371.00
2023-06-10T05:26:04.680Z,94371.00
2023-06-10T05:27:04.679Z,94369.00
2023-06-10T05:28:04.677Z,94369.00
2023-06-10T05:29:04.660Z,94369.00
2023-06-10T05:30:04.687Z,94369.00
2023-06-10T05:31:04.653Z,94367.00
2023-06-10T05:32:04.764Z,94367.00
2023-06-10T05:33:04.727Z,94365.00
2023-06-10T05:34:04.671Z,94367.00
2023-06-10T05:35:04.628Z,94367.00
2023-06-10T05:36:04.620Z,94367.00
2023-06-10T05:37:04.620Z,94365.00
2023-06-10T05:38:04.613Z,94365.00
2023-06-10T05:39:04.623Z,94363.00
2023-06-10T05:40:04.590Z,94365.00
2023-06-10T05:41:04.612Z,94363.00
2023-06-10T05:42:04.581Z,94361.00
2023-06-10T05:43:04.574Z,94357.00
2023-06-10T05:44:04.562Z,94361.00
2023-06-10T05:45:04.564Z,94357.00
2023-06-10T05:46:04.589Z,94359.00
2023-06-10T05:47:04.552Z,94363.00
2023-06-10T05:48:04.587Z,94361.00
2023-06-10T05:49:04.536Z,94357.00
2023-06-10T05:50:04.528Z,94361.00
2023-06-10T05:51:04.517Z,94359.00
2023-06-10T05:52:04.513Z,94361.00
2023-06-10T05:53:04.505Z,94361.00
2023-06-10T05:54:04.550Z,94355.00
2023-06-10T05:55:04.510Z,94359.00
2023-06-10T05:56:04.494Z,94359.00
2023-06-10T05:57:04.505Z,94353.00
2023-06-10T05:58:04.476Z,94355.00
2023-06-10T05:59:04.519Z,94355.00
2023-06-10T06:00:04.486Z,94355.00
2023-06-10T06:01:04.471Z,94353.00
2023-06-10T06:02:04.503Z,94357.00
2023-06-10T06:03:04.530Z,94357.00
2023-06-10T06:04:04.470Z,94357.00
2023-06-10T06:05:04.554Z,94359.00
2023-06-10T06:06:04.473Z,94357.00
2023-06-10T06:07:04.431Z,94353.00
2023-06-10T06:08:04.449Z,94353.00
2023-06-10T06:09:04.451Z,94353.00
2023-06-10T06:10:04.434Z,94353.00
2023-06-10T06:11:04.415Z,94347.00
2023-06-10T06:12:04.432Z,94347.00
2023-06-10T06:13:04.405Z,94345.00
2023-06-10T06:14:04.404Z,94345.00
2023-06-10T06:15:04.383Z,94345.00
2023-06-10T06:16:04.422Z,94347.00
2023-06-10T06:17:04.385Z,94343.00
2023-06-10T06:18:04.406Z,94343.00
2023-06-10T06:19:04.357Z,94343.00
2023-06-10T06:20:04.382Z,94339.00
2023-06-10T06:21:04.356Z,94341.00
2023-06-10T06:22:04.355Z,94335.00
2023-06-10T06:23:04.346Z,94335.00
2023-06-10T06:24:04.499Z,94334.00
2023-06-10T06:25:04.536Z,94332.00
2023-06-10T06:26:05.559Z,94330.00
2023-06-10T06:27:04.487Z,94330.00
2023-06-10T06:28:04.514Z,94330.00
2023-06-10T06:29:04.481Z,94330.00
2023-06-10T06:30:04.462Z,94330.00
2023-06-10T06:31:04.541Z,94328.00
2023-06-10T06:32:04.472Z,94328.00
2023-06-10T06:33:04.522Z,94326.00
2023-06-10T06:34:04.456Z,94328.00
2023-06-10T06:35:04.432Z,94326.00
2023-06-10T06:36:04.455Z,94326.00
2023-06-10T06:37:04.440Z,94324.00
2023-06-10T06:38:04.414Z,94326.00
2023-06-10T06:39:04.424Z,94324.00
2023-06-10T06:40:04.816Z,94324.00
2023-06-10T06:41:04.451Z,94324.00
2023-06-10T06:42:04.412Z,94326.00
2023-06-10T06:43:04.390Z,94322.00
2023-06-10T06:44:04.467Z,94320.00
2023-06-10T06:45:04.398Z,94320.00
2023-06-10T06:46:04.392Z,94320.00
2023-06-10T06:47:04.377Z,94320.00
2023-06-10T06:48:04.489Z,94322.00
2023-06-10T06:49:04.377Z,94324.00
2023-06-10T06:50:04.366Z,94320.00
2023-06-10T06:51:04.347Z,94322.00
2023-06-10T06:52:04.322Z,94324.00
2023-06-10T06:53:04.437Z,94322.00
2023-06-10T06:54:04.321Z,94322.00
2023-06-10T06:55:04.316Z,94326.00
2023-06-10T06:56:04.317Z,94324.00
2023-06-10T06:57:04.297Z,94324.00
2023-06-10T06:58:04.291Z,94324.00
2023-06-10T06:59:04.275Z,94324.00
2023-06-10T07:00:04.287Z,94324.00
2023-06-10T07:01:04.288Z,94324.00
2023-06-10T07:02:04.275Z,94324.00
2023-06-10T07:03:04.335Z,94324.00
2023-06-10T07:04:04.248Z,94324.00
2023-06-10T07:05:04.326Z,94324.00
2023-06-10T07:06:04.230Z,94324.00
2023-06-10T07:07:04.223Z,94324.00
2023-06-10T07:08:04.229Z,94322.00
2023-06-10T07:09:04.209Z,94322.00
2023-06-10T07:10:04.204Z,94324.00
2023-06-10T07:11:04.206Z,94316.00
2023-06-10T07:12:04.213Z,94318.00
2023-06-10T07:13:04.193Z,94318.00
2023-06-10T07:14:04.180Z,94316.00
2023-06-10T07:15:04.170Z,94314.00
2023-06-10T07:16:04.188Z,94316.00
2023-06-10T07:17:04.235Z,94316.00
2023-06-10T07:18:04.186Z,94312.00
2023-06-10T07:19:06.232Z,94314.00
2023-06-10T07:20:04.133Z,94312.00
2023-06-10T07:21:04.160Z,94312.00
2023-06-10T07:22:04.123Z,94310.00
2023-06-10T07:23:04.159Z,94312.00
2023-06-10T07:24:04.193Z,94314.00
2023-06-10T07:25:04.196Z,94308.00
2023-06-10T07:26:04.221Z,94308.00
2023-06-10T07:27:04.242Z,94308.00
2023-06-10T07:28:04.270Z,94312.00
2023-06-10T07:29:04.288Z,94310.00
2023-06-10T07:30:04.316Z,94308.00
2023-06-10T07:31:04.366Z,94308.00
2023-06-10T07:32:04.360Z,94306.00
2023-06-10T07:33:04.499Z,94302.00
2023-06-10T07:34:04.407Z,94302.00
2023-06-10T07:35:04.423Z,94302.00
2023-06-10T07:36:04.451Z,94300.00
2023-06-10T07:37:04.470Z,94302.00
2023-06-10T07:38:04.523Z,94300.00
2023-06-10T07:39:04.513Z,94304.00
2023-06-10T07:40:04.553Z,94302.00
2023-06-10T07:41:04.545Z,94302.00
2023-06-10T07:42:04.566Z,94302.00
2023-06-10T07:43:04.581Z,94306.00
2023-06-10T07:44:04.601Z,94302.00
2023-06-10T07:45:04.609Z,94306.00
2023-06-10T07:46:04.686Z,94304.00
2023-06-10T07:47:04.708Z,94302.00
2023-06-10T07:48:04.813Z,94302.00
2023-06-10T07:49:04.686Z,94300.00
2023-06-10T07:50:04.713Z,94302.00
2023-06-10T07:51:04.733Z,94300.00
2023-06-10T07:52:04.782Z,94300.00
2023-06-10T07:53:04.763Z,94298.00
2023-06-10T07:54:04.797Z,94294.00
2023-06-10T07:55:04.815Z,94290.00
2023-06-10T07:56:04.817Z,94292.00
2023-06-10T07:57:04.880Z,94288.00
2023-06-10T07:58:04.873Z,94286.00
2023-06-10T07:59:04.877Z,94286.00
2023-06-10T08:00:04.912Z,94286.00
2023-06-10T08:01:04.915Z,94284.00
2023-06-10T08:02:04.991Z,94282.00
2023-06-10T08:03:05.030Z,94284.00
2023-06-10T08:04:05.154Z,94280.00
2023-06-10T08:05:05.038Z,94279.00
2023-06-10T08:06:05.100Z,94277.00
2023-06-10T08:07:05.069Z,94275.00
2023-06-10T08:08:05.057Z,94277.00
2023-06-10T08:09:05.085Z,94273.00
2023-06-10T08:10:05.111Z,94273.00
2023-06-10T08:11:05.113Z,94271.00
2023-06-10T08:12:05.146Z,94269.00
2023-06-10T08:13:05.152Z,94267.00
2023-06-10T08:14:06.068Z,94269.00
2023-06-10T08:15:05.215Z,94269.00
2023-06-10T08:16:05.221Z,94265.00
2023-06-10T08:17:05.299Z,94263.00
2023-06-10T08:18:05.292Z,94263.00
2023-06-10T08:19:05.251Z,94261.00
2023-06-10T08:20:05.272Z,94261.00
2023-06-10T08:21:05.294Z,94261.00
2023-06-10T08:22:05.324Z,94261.00
2023-06-10T08:23:05.335Z,94261.00
2023-06-10T08:24:05.428Z,94261.00
2023-06-10T08:25:05.382Z,94259.00
2023-06-10T08:26:05.398Z,94259.00
2023-06-10T08:27:05.411Z,94259.00
2023-06-10T08:28:05.437Z,94259.00
2023-06-10T08:29:05.455Z,94257.00
2023-06-10T08:30:05.493Z,94259.00
2023-06-10T08:31:05.495Z,94257.00
2023-06-10T08:32:05.593Z,94253.00
2023-06-10T08:33:05.569Z,94255.00
2023-06-10T08:34:05.570Z,94251.00
2023-06-10T08:35:05.589Z,94251.00
2023-06-10T08:36:05.611Z,94251.00
2023-06-10T08:37:05.653Z,94251.00
2023-06-10T08:38:05.694Z,94249.00
2023-06-10T08:39:05.672Z,94249.00
2023-06-10T08:40:05.697Z,94249.00
2023-06-10T08:41:05.738Z,94249.00
2023-06-10T08:42:05.737Z,94247.00
2023-06-10T08:43:05.821Z,94251.00
2023-06-10T08:44:05.787Z,94247.00
2023-06-10T08:45:05.861Z,94249.00
2023-06-10T08:46:05.849Z,94245.00
2023-06-10T08:47:05.864Z,94243.00
2023-06-10T08:48:05.954Z,94245.00
2023-06-10T08:49:06.029Z,94243.00
2023-06-10T08:50:05.971Z,94245.00
2023-06-10T08:51:05.992Z,94241.00
2023-06-10T08:52:06.023Z,94241.00
2023-06-10T08:53:06.081Z,94243.00
2023-06-10T08:54:06.098Z,94239.00
2023-06-10T08:55:06.135Z,94239.00
2023-06-10T08:56:06.131Z,94237.00
2023-06-10T08:57:06.222Z,94233.00
2023-06-10T08:58:06.217Z,94233.00
2023-06-10T08:59:06.260Z,94232.00
2023-06-10T09:00:06.288Z,94233.00
2023-06-10T09:01:06.387Z,94232.00
2023-06-10T09:02:06.422Z,94232.00
2023-06-10T09:03:06.482Z,94230.00
2023-06-10T09:04:06.434Z,94228.00
2023-06-10T09:05:06.457Z,94226.00
2023-06-10T09:06:06.483Z,94224.00
2023-06-10T09:07:06.536Z,94224.00
2023-06-10T09:08:06.568Z,94224.00
2023-06-10T09:09:06.609Z,94224.00
2023-06-10T09:10:06.817Z,94224.00
2023-06-10T09:11:06.671Z,94222.00
2023-06-10T09:12:06.733Z,94222.00
2023-06-10T09:13:06.775Z,94226.00
2023-06-10T09:14:06.833Z,94222.00
2023-06-10T09:15:06.867Z,94224.00
2023-06-10T09:16:07.073Z,94222.00
2023-06-10T09:17:06.959Z,94220.00
2023-06-10T09:18:07.016Z,94222.00
2023-06-10T09:19:07.062Z,94218.00
2023-06-10T09:20:10.383Z,94218.00
2023-06-10T09:21:07.093Z,94220.00
2023-06-10T09:22:07.087Z,94218.00
2023-06-10T09:23:07.090Z,94218.00
2023-06-10T09:24:07.177Z,94218.00
2023-06-10T09:25:07.071Z,94216.00
2023-06-10T09:26:10.448Z,94212.00
2023-06-10T09:27:07.073Z,94210.00
2023-06-10T09:28:07.084Z,94210.00
2023-06-10T09:29:07.042Z,94208.00
2023-06-10T09:30:07.160Z,94206.00
2023-06-10T09:31:07.137Z,94208.00
2023-06-10T09:32:10.265Z,94208.00
2023-06-10T09:33:07.115Z,94206.00
2023-06-10T09:34:07.023Z,94210.00
2023-06-10T09:35:07.021Z,94204.00
2023-06-10T09:36:07.078Z,94212.00
2023-06-10T09:37:07.000Z,94208.00
2023-06-10T09:38:09.734Z,94210.00
2023-06-10T09:39:06.985Z,94206.00
2023-06-10T09:40:07.141Z,94208.00
2023-06-10T09:41:06.985Z,94212.00
2023-06-10T09:42:07.008Z,94214.00
2023-06-10T09:43:06.974Z,94214.00
2023-06-10T09:44:09.328Z,94212.00
2023-06-10T09:45:06.985Z,94218.00
2023-06-10T09:46:07.039Z,94216.00
2023-06-10T09:47:06.951Z,94216.00
2023-06-10T09:48:06.998Z,94216.00
2023-06-10T09:49:06.952Z,94216.00
2023-06-10T09:50:09.424Z,94210.00
2023-06-10T09:51:06.999Z,94210.00
2023-06-10T09:52:06.973Z,94210.00
2023-06-10T09:53:06.906Z,94204.00
2023-06-10T09:54:06.923Z,94210.00
2023-06-10T09:55:06.901Z,94204.00
2023-06-10T09:56:09.632Z,94204.00
2023-06-10T09:57:06.983Z,94204.00
2023-06-10T09:58:06.947Z,94202.00
2023-06-10T09:59:06.883Z,94200.00
2023-06-10T10:00:07.013Z,94202.00
2023-06-10T10:01:06.917Z,94198.00
2023-06-10T10:02:09.002Z,94198.00
2023-06-10T10:03:06.887Z,94198.00
2023-06-10T10:04:06.881Z,94198.00
2023-06-10T10:05:06.940Z,94196.00
2023-06-10T10:06:06.942Z,94196.00
2023-06-10T10:07:06.843Z,94196.00
2023-06-10T10:08:06.833Z,94194.00
2023-06-10T10:09:06.869Z,94198.00
2023-06-10T10:10:06.859Z,94192.00
2023-06-10T10:11:06.900Z,94194.00
2023-06-10T10:12:06.807Z,94194.00
2023-06-10T10:13:06.797Z,94192.00
2023-06-10T10:14:09.153Z,94192.00
2023-06-10T10:15:06.888Z,94192.00
2023-06-10T10:16:06.824Z,94190.00
2023-06-10T10:17:06.890Z,94192.00
2023-06-10T10:18:06.894Z,94190.00
2023-06-10T10:19:06.771Z,94190.00
2023-06-10T10:20:06.753Z,94186.00
2023-06-10T10:21:06.747Z,94183.00
2023-06-10T10:22:06.748Z,94186.00
2023-06-10T10:23:06.737Z,94186.00
2023-06-10T10:24:06.769Z,94181.00
2023-06-10T10:25:06.764Z,94181.00
2023-06-10T10:26:08.028Z,94185.00
2023-06-10T10:27:06.755Z,94183.00
2023-06-10T10:28:06.725Z,94183.00
2023-06-10T10:29:06.708Z,94181.00
2023-06-10T10:30:06.723Z,94183.00
2023-06-10T10:31:06.733Z,94179.00
2023-06-10T10:32:06.729Z,94179.00
2023-06-10T10:33:09.302Z,94175.00
2023-06-10T10:34:06.813Z,94177.00
2023-06-10T10:35:06.753Z,94177.00
2023-06-10T10:36:06.682Z,94173.00
2023-06-10T10:37:06.661Z,94179.00
2023-06-10T10:38:06.645Z,94173.00
2023-06-10T10:39:06.644Z,94177.00
2023-06-10T10:40:06.633Z,94173.00
2023-06-10T10:41:06.632Z,94175.00
2023-06-10T10:42:06.691Z,94171.00
2023-06-10T10:43:06.628Z,94171.00
2023-06-10T10:44:06.702Z,94167.00
2023-06-10T10:45:08.980Z,94173.00
2023-06-10T10:46:06.650Z,94171.00
2023-06-10T10:47:06.655Z,94173.00
2023-06-10T10:48:06.664Z,94173.00
2023-06-10T10:49:06.588Z,94169.00
2023-06-10T10:50:06.693Z,94169.00
2023-06-10T10:51:06.570Z,94171.00
2023-06-10T10:52:06.588Z,94167.00
2023-06-10T10:53:06.554Z,94167.00
2023-06-10T10:54:06.615Z,94167.00
2023-06-10T10:55:06.672Z,94165.00
2023-06-10T10:56:06.561Z,94165.00
2023-06-10T10:57:06.638Z,94163.00
2023-06-10T10:58:06.536Z,94161.00
2023-06-10T10:59:06.543Z,94161.00
2023-06-10T11:00:06.563Z,94157.00
2023-06-10T11:01:06.526Z,94157.00
2023-06-10T11:02:06.567Z,94159.00
2023-06-10T11:03:10.256Z,94157.00
2023-06-10T11:04:06.632Z,94155.00
2023-06-10T11:05:06.599Z,94159.00
2023-06-10T11:06:06.518Z,94155.00
2023-06-10T11:07:06.487Z,94157.00
2023-06-10T11:08:06.475Z,94153.00
2023-06-10T11:09:06.747Z,94157.00
2023-06-10T11:10:06.490Z,94155.00
2023-06-10T11:11:06.454Z,94159.00
2023-06-10T11:12:06.456Z,94155.00
2023-06-10T11:13:06.437Z,94155.00
2023-06-10T11:14:06.450Z,94153.00
2023-06-10T11:15:06.443Z,94155.00
2023-06-10T11:16:06.472Z,94157.00
2023-06-10T11:17:06.430Z,94153.00
2023-06-10T11:18:06.525Z,94155.00
2023-06-10T11:19:06.437Z,94155.00
2023-06-10T11:20:06.410Z,94155.00
2023-06-10T11:21:06.510Z,94153.00
2023-06-10T11:22:06.404Z,94155.00
2023-06-10T11:23:06.452Z,94151.00
2023-06-10T11:24:06.483Z,94151.00
2023-06-10T11:25:06.518Z,94147.00
2023-06-10T11:26:06.501Z,94149.00
2023-06-10T11:27:06.534Z,94149.00
2023-06-10T11:28:06.821Z,94147.00
2023-06-10T11:29:07.528Z,94149.00
2023-06-10T11:30:06.660Z,94147.00
2023-06-10T11:31:06.760Z,94149.00
2023-06-10T11:32:06.843Z,94147.00
2023-06-10T11:33:06.934Z,94147.00
2023-06-10T11:34:06.823Z,94147.00
2023-06-10T11:35:07.041Z,94145.00
2023-06-10T11:36:06.899Z,94147.00
2023-06-10T11:37:06.948Z,94145.00
2023-06-10T11:38:06.980Z,94141.00
2023-06-10T11:39:07.035Z,94141.00
2023-06-10T11:40:07.023Z,94141.00
2023-06-10T11:41:07.032Z,94141.00
2023-06-10T11:42:07.070Z,94141.00
2023-06-10T11:43:07.122Z,94138.00
2023-06-10T11:44:07.124Z,94139.00
2023-06-10T11:45:07.152Z,94138.00